createdAt,value
2023-05-19T00:01:52.626Z,4.31
2023-05-19T00:04:19.401Z,4.36
2023-05-19T00:06:50.986Z,4.25
2023-05-19T00:09:17.968Z,4.33
2023-05-19T00:11:44.854Z,4.11
2023-05-19T00:14:11.699Z,4.30
2023-05-19T00:16:39.257Z,4.17
2023-05-19T00:19:06.660Z,4.17
2023-05-19T00:21:33.268Z,4.05
2023-05-19T00:23:59.858Z,3.87
2023-05-19T00:26:27.199Z,4.01
2023-05-19T00:29:04.478Z,3.92
2023-05-19T00:31:31.825Z,4.07
2023-05-19T00:33:58.480Z,4.00
2023-05-19T00:36:25.339Z,3.69
2023-05-19T00:38:51.976Z,3.69
2023-05-19T00:41:18.748Z,3.96
2023-05-19T00:43:45.600Z,4.00
2023-05-19T00:46:12.358Z,4.08
2023-05-19T00:48:39.262Z,4.09
2023-05-19T00:51:06.592Z,4.08
2023-05-19T00:53:34.776Z,3.91
2023-05-19T00:56:02.947Z,3.84
2023-05-19T00:58:32.459Z,3.69
2023-05-19T01:01:04.237Z,3.60
2023-05-19T01:03:32.568Z,3.71
2023-05-19T01:06:01.711Z,3.78
2023-05-19T01:08:29.340Z,3.65
2023-05-19T01:10:55.907Z,3.36
2023-05-19T01:13:22.769Z,3.50
2023-05-19T01:15:57.054Z,3.58
2023-05-19T01:18:35.713Z,3.46
2023-05-19T01:21:38.031Z,3.31
2023-05-19T01:24:09.737Z,3.26
2023-05-19T01:26:46.000Z,3.19
2023-05-19T01:29:32.231Z,3.35
2023-05-19T01:32:00.971Z,3.19
2023-05-19T01:34:27.863Z,3.20
2023-05-19T01:36:56.027Z,3.26
2023-05-19T01:39:24.638Z,3.26
2023-05-19T01:41:52.433Z,3.03
2023-05-19T01:44:20.028Z,2.87
2023-05-19T01:46:47.461Z,2.89
2023-05-19T01:49:14.235Z,3.07
2023-05-19T01:51:41.248Z,2.65
2023-05-19T01:54:07.909Z,2.65
2023-05-19T01:56:45.378Z,2.43
2023-05-19T01:59:24.704Z,2.87
2023-05-19T02:01:53.935Z,2.74
2023-05-19T02:04:41.973Z,2.80
2023-05-19T02:07:14.787Z,2.89
2023-05-19T02:09:59.347Z,2.84
2023-05-19T02:12:32.355Z,3.00
2023-05-19T02:15:12.338Z,3.06
2023-05-19T02:17:42.657Z,2.79
2023-05-19T02:20:10.612Z,2.97
2023-05-19T02:22:37.825Z,3.06
2023-05-19T02:25:04.987Z,3.01
2023-05-19T02:27:33.905Z,3.04
2023-05-19T02:30:03.554Z,2.82
2023-05-19T02:32:31.573Z,2.67
2023-05-19T02:34:58.362Z,2.64
2023-05-19T02:37:25.254Z,2.52
2023-05-19T02:39:51.817Z,2.36
2023-05-19T02:42:18.729Z,2.49
2023-05-19T02:44:45.425Z,2.28
2023-05-19T02:47:13.151Z,2.31
2023-05-19T02:49:40.199Z,2.20
2023-05-19T02:52:07.239Z,2.21
2023-05-19T02:54:34.983Z,2.44
2023-05-19T02:57:02.214Z,2.51
2023-05-19T02:59:28.881Z,2.54
2023-05-19T03:01:57.672Z,2.63
2023-05-19T03:04:24.378Z,2.64
2023-05-19T03:06:51.038Z,2.62
2023-05-19T03:09:17.731Z,2.19
2023-05-19T03:11:44.473Z,2.01
2023-05-19T03:14:12.121Z,1.86
2023-05-19T03:16:41.332Z,1.99
2023-05-19T03:19:09.301Z,1.87
2023-05-19T03:21:36.063Z,2.01
2023-05-19T03:24:02.955Z,1.95
2023-05-19T03:26:29.864Z,2.10
2023-05-19T03:28:57.038Z,2.00
2023-05-19T03:31:23.869Z,2.23
2023-05-19T03:33:50.694Z,2.32
2023-05-19T03:36:17.908Z,2.25
2023-05-19T03:38:44.513Z,2.10
2023-05-19T03:41:11.096Z,2.27
2023-05-19T03:43:37.926Z,1.99
2023-05-19T03:46:07.159Z,2.06
2023-05-19T03:48:42.627Z,2.02
2023-05-19T03:51:47.505Z,2.15
2023-05-19T03:54:33.006Z,2.28
2023-05-19T03:56:59.566Z,2.36
2023-05-19T03:59:26.151Z,1.88
2023-05-19T04:01:52.927Z,2.06
2023-05-19T04:04:19.934Z,2.38
2023-05-19T04:06:46.751Z,2.32
2023-05-19T04:09:15.791Z,2.22
2023-05-19T04:11:43.065Z,2.67
2023-05-19T04:14:09.934Z,2.51
2023-05-19T04:16:36.970Z,2.62
2023-05-19T04:19:03.675Z,2.87
2023-05-19T04:21:30.525Z,2.91
2023-05-19T04:23:59.175Z,3.14
2023-05-19T04:26:26.902Z,3.44
2023-05-19T04:28:56.714Z,3.54
2023-05-19T04:31:24.112Z,3.79
2023-05-19T04:33:50.829Z,3.89
2023-05-19T04:36:24.591Z,3.90
2023-05-19T04:38:55.023Z,3.77
2023-05-19T04:41:24.307Z,4.11
2023-05-19T04:43:51.160Z,4.25
2023-05-19T04:46:26.327Z,4.25
2023-05-19T04:48:55.412Z,4.73
2023-05-19T04:51:22.090Z,4.55
2023-05-19T04:53:49.173Z,4.75
2023-05-19T04:56:15.983Z,4.73
2023-05-19T04:58:44.662Z,4.87
2023-05-19T05:01:13.848Z,5.32
2023-05-19T05:03:40.754Z,5.18
2023-05-19T05:06:07.628Z,5.37
2023-05-19T05:08:34.974Z,5.43
2023-05-19T05:11:02.346Z,5.44
2023-05-19T05:13:29.311Z,5.65
2023-05-19T05:15:56.957Z,5.67
2023-05-19T05:18:23.936Z,6.03
2023-05-19T05:20:51.857Z,6.33
2023-05-19T05:23:19.912Z,6.15
2023-05-19T05:25:48.818Z,6.02
2023-05-19T05:28:16.460Z,6.45
2023-05-19T05:30:44.879Z,6.50
2023-05-19T05:33:13.505Z,6.84
2023-05-19T05:35:41.276Z,6.73
2023-05-19T05:38:11.689Z,6.96
2023-05-19T05:40:39.165Z,6.81
2023-05-19T05:43:06.191Z,7.14
2023-05-19T05:45:37.413Z,7.05
2023-05-19T05:48:05.527Z,7.34
2023-05-19T05:50:32.493Z,7.02
2023-05-19T05:53:01.416Z,6.91
2023-05-19T05:55:28.514Z,7.01
2023-05-19T05:57:56.870Z,7.53
2023-05-19T06:00:23.801Z,8.07
2023-05-19T06:02:52.882Z,7.82
2023-05-19T06:05:20.300Z,8.03
2023-05-19T06:07:48.234Z,8.48
2023-05-19T06:10:20.148Z,8.22
2023-05-19T06:12:48.956Z,8.34
2023-05-19T06:15:15.849Z,8.45
2023-05-19T06:18:05.869Z,8.41
2023-05-19T06:20:32.675Z,8.81
2023-05-19T06:23:00.804Z,9.25
2023-05-19T06:25:28.949Z,9.38
2023-05-19T06:27:56.539Z,9.28
2023-05-19T06:30:23.934Z,9.11
2023-05-19T06:33:13.939Z,9.64
2023-05-19T06:35:40.992Z,9.54
2023-05-19T06:38:07.807Z,9.56
2023-05-19T06:40:34.723Z,9.26
2023-05-19T06:43:01.583Z,9.59
2023-05-19T06:45:51.008Z,10.06
2023-05-19T06:48:18.216Z,10.04
2023-05-19T06:50:44.850Z,9.19
2023-05-19T06:53:12.882Z,9.90
2023-05-19T06:55:54.347Z,9.89
2023-05-19T06:58:27.067Z,9.55
2023-05-19T07:00:54.530Z,10.38
2023-05-19T07:03:22.456Z,10.47
2023-05-19T07:05:49.309Z,10.47
2023-05-19T07:08:16.355Z,11.14
2023-05-19T07:10:43.971Z,10.80
2023-05-19T07:13:13.267Z,10.84
2023-05-19T07:15:40.896Z,10.96
2023-05-19T07:18:07.645Z,10.83
2023-05-19T07:20:35.652Z,10.65
2023-05-19T07:23:02.758Z,11.17
2023-05-19T07:25:30.522Z,10.75
2023-05-19T07:27:57.450Z,12.02
2023-05-19T07:30:24.148Z,12.80
2023-05-19T07:32:50.874Z,13.52
2023-05-19T07:35:17.536Z,13.60
2023-05-19T07:37:44.173Z,13.25
2023-05-19T07:40:11.115Z,12.81
2023-05-19T07:42:38.142Z,13.78
2023-05-19T07:45:05.156Z,14.79
2023-05-19T07:47:31.895Z,15.02
2023-05-19T07:49:58.617Z,15.06
2023-05-19T07:52:25.303Z,15.81
2023-05-19T07:54:51.876Z,16.03
2023-05-19T07:57:18.969Z,17.15
2023-05-19T07:59:45.667Z,17.04
2023-05-19T08:02:12.407Z,18.85
2023-05-19T08:04:39.161Z,20.14
2023-05-19T08:07:05.868Z,20.64
2023-05-19T08:09:32.524Z,20.77
2023-05-19T08:11:59.193Z,19.70
2023-05-19T08:14:26.934Z,21.40
2023-05-19T08:16:53.581Z,20.49
2023-05-19T08:19:20.199Z,23.18
2023-05-19T08:21:48.387Z,23.62
2023-05-19T08:24:15.254Z,24.63
2023-05-19T08:26:41.908Z,25.56
2023-05-19T08:29:08.453Z,25.75
2023-05-19T08:31:35.193Z,26.32
2023-05-19T08:34:01.997Z,26.87
2023-05-19T08:36:29.482Z,27.13
2023-05-19T08:38:56.238Z,25.44
2023-05-19T08:41:23.346Z,25.53
2023-05-19T08:43:50.198Z,25.74
2023-05-19T08:46:17.210Z,23.90
2023-05-19T08:48:45.297Z,24.52
2023-05-19T08:51:33.842Z,23.08
2023-05-19T08:54:15.708Z,20.37
2023-05-19T08:56:44.881Z,21.93
2023-05-19T08:59:16.044Z,22.31
2023-05-19T09:01:46.462Z,22.59
2023-05-19T09:04:14.116Z,21.40
2023-05-19T09:06:41.161Z,21.47
2023-05-19T09:09:08.565Z,20.88
2023-05-19T09:11:37.654Z,22.49
2023-05-19T09:14:05.155Z,22.72
2023-05-19T09:16:34.024Z,21.41
2023-05-19T09:19:01.553Z,21.50
2023-05-19T09:21:32.373Z,20.07
2023-05-19T09:24:06.743Z,19.05
2023-05-19T09:26:38.541Z,17.98
2023-05-19T09:29:18.111Z,18.38
2023-05-19T09:32:01.015Z,18.72
2023-05-19T09:34:27.983Z,19.89
2023-05-19T09:36:54.617Z,17.97
2023-05-19T09:39:23.028Z,18.07
2023-05-19T09:41:58.496Z,18.06
2023-05-19T09:44:30.381Z,18.42
2023-05-19T09:47:00.936Z,18.88
2023-05-19T09:49:32.867Z,18.77
2023-05-19T09:52:03.301Z,19.13
2023-05-19T09:54:32.500Z,16.93
2023-05-19T09:57:07.059Z,16.95
2023-05-19T09:59:34.994Z,16.78
2023-05-19T10:02:02.543Z,17.09
2023-05-19T10:04:30.605Z,16.65
2023-05-19T10:07:01.307Z,16.01
2023-05-19T10:09:29.538Z,15.91
2023-05-19T10:11:57.919Z,15.75
2023-05-19T10:14:26.155Z,15.86
2023-05-19T10:16:59.128Z,16.54
2023-05-19T10:19:28.640Z,16.43
2023-05-19T10:21:56.262Z,16.00
2023-05-19T10:24:23.340Z,15.75
2023-05-19T10:26:56.686Z,16.18
2023-05-19T10:29:27.917Z,16.10
2023-05-19T10:31:57.248Z,15.93
2023-05-19T10:34:50.192Z,15.83
2023-05-19T10:37:23.868Z,15.48
2023-05-19T10:39:51.311Z,15.40
2023-05-19T10:42:40.985Z,15.17
2023-05-19T10:45:15.777Z,15.19
2023-05-19T10:47:42.552Z,16.13
2023-05-19T10:50:10.621Z,16.09
2023-05-19T10:52:38.799Z,16.09
2023-05-19T10:55:10.203Z,15.99
2023-05-19T10:57:37.091Z,16.31
2023-05-19T11:00:24.779Z,16.26
2023-05-19T11:02:56.252Z,16.35
2023-05-19T11:05:29.105Z,16.36
2023-05-19T11:08:02.219Z,16.18
2023-05-19T11:10:29.095Z,15.90
2023-05-19T11:15:31.074Z,16.95
2023-05-19T11:18:01.672Z,17.32
2023-05-19T11:20:30.686Z,16.93
2023-05-19T11:23:15.075Z,16.97
2023-05-19T11:25:47.221Z,17.49
2023-05-19T11:28:19.570Z,17.08
2023-05-19T11:30:50.698Z,17.92
2023-05-19T11:33:21.514Z,16.87
2023-05-19T11:35:50.408Z,16.96
2023-05-19T11:38:19.455Z,16.39
2023-05-19T11:40:47.695Z,16.46
2023-05-19T11:43:16.679Z,16.48
2023-05-19T11:45:43.687Z,15.98
2023-05-19T11:48:13.907Z,16.38
2023-05-19T11:50:41.742Z,15.76
2023-05-19T11:53:12.076Z,15.42
2023-05-19T11:55:43.596Z,15.75
2023-05-19T11:58:10.361Z,16.19
2023-05-19T12:00:39.563Z,16.39
2023-05-19T12:03:07.332Z,16.98
2023-05-19T12:05:42.951Z,17.34
2023-05-19T12:08:12.543Z,17.13
2023-05-19T12:10:40.552Z,16.66
2023-05-19T12:13:10.730Z,16.55
2023-05-19T12:15:38.754Z,16.63
2023-05-19T12:18:05.848Z,16.28
2023-05-19T12:20:35.386Z,16.08
2023-05-19T12:23:02.483Z,16.27
2023-05-19T12:25:31.039Z,16.26
2023-05-19T12:27:59.378Z,17.08
2023-05-19T12:30:30.162Z,16.99
2023-05-19T12:33:00.292Z,17.18
2023-05-19T12:35:33.178Z,17.31
2023-05-19T12:38:04.702Z,16.92
2023-05-19T12:40:31.588Z,16.77
2023-05-19T12:42:59.229Z,17.53
2023-05-19T12:45:28.243Z,17.56
2023-05-19T12:47:56.054Z,17.87
2023-05-19T12:50:30.473Z,17.94
2023-05-19T12:52:59.580Z,18.30
2023-05-19T12:55:26.319Z,18.10
2023-05-19T12:57:57.076Z,17.56
2023-05-19T13:00:32.832Z,17.31
2023-05-19T13:03:05.817Z,17.58
2023-05-19T13:05:38.558Z,18.23
2023-05-19T13:08:08.039Z,17.86
2023-05-19T13:10:36.638Z,18.23
2023-05-19T13:13:04.548Z,17.56
2023-05-19T13:15:37.648Z,17.46
2023-05-19T13:18:06.476Z,17.06
2023-05-19T13:20:34.284Z,17.74
2023-05-19T13:23:01.587Z,18.19
2023-05-19T13:25:28.447Z,17.72
2023-05-19T13:27:56.662Z,17.39
2023-05-19T13:30:23.766Z,16.75
2023-05-19T13:32:52.496Z,16.54
2023-05-19T13:35:19.687Z,17.38
2023-05-19T13:37:46.403Z,16.92
2023-05-19T13:40:13.597Z,16.64
2023-05-19T13:42:40.603Z,16.37
2023-05-19T13:45:07.784Z,16.55
2023-05-19T13:47:34.629Z,16.50
2023-05-19T13:50:03.042Z,16.81
2023-05-19T13:52:30.573Z,16.54
2023-05-19T13:54:57.657Z,16.34
2023-05-19T13:57:26.317Z,16.48
2023-05-19T14:00:02.468Z,16.38
2023-05-19T14:02:39.370Z,16.38
2023-05-19T14:05:07.411Z,16.21
2023-05-19T14:07:34.978Z,16.17
2023-05-19T14:10:02.908Z,16.62
2023-05-19T14:12:38.067Z,16.58
2023-05-19T14:15:14.498Z,16.80
2023-05-19T14:17:41.501Z,16.59
2023-05-19T14:20:08.756Z,16.47
2023-05-19T14:22:35.583Z,16.51
2023-05-19T14:25:02.381Z,16.22
2023-05-19T14:27:29.088Z,16.21
2023-05-19T14:29:55.737Z,16.42
2023-05-19T14:32:22.458Z,16.23
2023-05-19T14:34:52.808Z,16.49
2023-05-19T14:37:20.860Z,16.56
2023-05-19T14:39:47.494Z,16.88
2023-05-19T14:42:14.095Z,16.46
2023-05-19T14:44:40.755Z,16.86
2023-05-19T14:47:07.745Z,16.70
2023-05-19T14:49:34.496Z,16.70
2023-05-19T14:52:01.331Z,15.88
2023-05-19T14:54:28.160Z,16.62
2023-05-19T14:56:54.804Z,16.27
2023-05-19T14:59:21.837Z,15.75
2023-05-19T15:01:50.630Z,16.16
2023-05-19T15:04:17.297Z,16.03
2023-05-19T15:06:44.371Z,15.76
2023-05-19T15:09:14.600Z,16.02
2023-05-19T15:11:41.344Z,15.89
2023-05-19T15:14:08.044Z,15.49
2023-05-19T15:16:34.791Z,15.75
2023-05-19T15:19:01.529Z,15.67
2023-05-19T15:21:28.343Z,15.93
2023-05-19T15:23:55.043Z,16.27
2023-05-19T15:26:22.362Z,15.55
2023-05-19T15:28:49.695Z,15.68
2023-05-19T15:31:16.583Z,15.44
2023-05-19T15:33:43.206Z,15.82
2023-05-19T15:36:12.772Z,15.45
2023-05-19T15:38:39.360Z,15.40
2023-05-19T15:41:08.055Z,15.75
2023-05-19T15:43:34.960Z,15.72
2023-05-19T15:46:01.563Z,15.50
2023-05-19T15:48:29.019Z,15.58
2023-05-19T15:50:58.055Z,15.46
2023-05-19T15:53:25.372Z,15.32
2023-05-19T15:55:52.046Z,15.08
2023-05-19T15:58:18.651Z,14.76
2023-05-19T16:00:45.361Z,15.32
2023-05-19T16:03:12.226Z,14.94
2023-05-19T16:05:38.913Z,14.79
2023-05-19T16:08:07.110Z,14.79
2023-05-19T16:10:35.618Z,14.99
2023-05-19T16:13:02.612Z,14.75
2023-05-19T16:15:29.479Z,14.38
2023-05-19T16:17:56.897Z,14.36
2023-05-19T16:20:27.817Z,14.84
2023-05-19T16:22:55.443Z,14.52
2023-05-19T16:25:22.325Z,14.58
2023-05-19T16:27:49.130Z,14.66
2023-05-19T16:30:16.552Z,14.66
2023-05-19T16:32:43.338Z,14.50
2023-05-19T16:35:10.482Z,14.84
2023-05-19T16:37:37.156Z,14.71
2023-05-19T16:40:04.184Z,14.94
2023-05-19T16:42:31.927Z,14.95
2023-05-19T16:44:58.514Z,14.89
2023-05-19T16:47:25.094Z,14.64
2023-05-19T16:49:51.784Z,14.50
2023-05-19T16:52:18.511Z,14.57
2023-05-19T16:54:45.064Z,14.29
2023-05-19T16:57:14.293Z,14.45
2023-05-19T16:59:41.359Z,14.38
2023-05-19T17:02:08.556Z,14.73
2023-05-19T17:04:35.416Z,14.54
2023-05-19T17:07:02.048Z,14.53
2023-05-19T17:09:28.622Z,14.40
2023-05-19T17:11:58.227Z,14.34
2023-05-19T17:14:24.831Z,14.04
2023-05-19T17:16:52.688Z,13.65
2023-05-19T17:19:19.495Z,14.37
2023-05-19T17:21:46.444Z,13.71
2023-05-19T17:24:13.502Z,14.18
2023-05-19T17:26:40.152Z,14.08
2023-05-19T17:29:06.806Z,14.00
2023-05-19T17:31:33.484Z,13.97
2023-05-19T17:34:00.151Z,13.82
2023-05-19T17:36:26.829Z,13.54
2023-05-19T17:38:53.412Z,14.00
2023-05-19T17:41:20.116Z,13.88
2023-05-19T17:43:47.439Z,13.57
2023-05-19T17:46:17.195Z,13.50
2023-05-19T17:48:44.011Z,13.54
2023-05-19T17:51:11.439Z,13.46
2023-05-19T17:53:38.334Z,13.65
2023-05-19T17:56:07.370Z,13.68
2023-05-19T17:58:34.254Z,13.35
2023-05-19T18:01:01.025Z,13.13
2023-05-19T18:03:27.875Z,13.19
2023-05-19T18:05:54.772Z,13.02
2023-05-19T18:08:21.630Z,13.42
2023-05-19T18:10:51.259Z,13.39
2023-05-19T18:13:18.034Z,12.96
2023-05-19T18:15:44.621Z,13.07
2023-05-19T18:18:11.638Z,13.20
2023-05-19T18:20:39.383Z,13.03
2023-05-19T18:23:06.133Z,12.85
2023-05-19T18:25:32.901Z,12.50
2023-05-19T18:27:59.597Z,12.68
2023-05-19T18:30:26.176Z,12.39
2023-05-19T18:32:52.964Z,12.29
2023-05-19T18:35:21.098Z,12.42
2023-05-19T18:37:47.763Z,12.63
2023-05-19T18:40:14.391Z,12.57
2023-05-19T18:42:40.982Z,12.28
2023-05-19T18:45:08.099Z,12.16
2023-05-19T18:47:35.006Z,12.09
2023-05-19T18:50:02.049Z,12.16
2023-05-19T18:52:29.177Z,12.13
2023-05-19T18:54:56.207Z,12.35
2023-05-19T18:57:23.148Z,12.23
2023-05-19T18:59:49.775Z,12.23
2023-05-19T19:02:16.533Z,11.79
2023-05-19T19:04:43.609Z,12.20
2023-05-19T19:07:10.295Z,11.84
2023-05-19T19:09:37.081Z,11.80
2023-05-19T19:12:03.943Z,11.91
2023-05-19T19:14:31.010Z,12.06
2023-05-19T19:16:57.877Z,11.77
2023-05-19T19:19:24.881Z,11.84
2023-05-19T19:21:51.773Z,11.62
2023-05-19T19:24:18.464Z,11.75
2023-05-19T19:26:45.080Z,11.70
2023-05-19T19:29:11.943Z,11.61
2023-05-19T19:31:38.645Z,11.66
2023-05-19T19:34:09.220Z,11.28
2023-05-19T19:36:36.425Z,11.30
2023-05-19T19:39:03.390Z,11.43
2023-05-19T19:41:30.233Z,11.38
2023-05-19T19:43:56.866Z,11.22
2023-05-19T19:46:23.505Z,11.12
2023-05-19T19:48:50.160Z,11.12
2023-05-19T19:51:16.897Z,11.04
2023-05-19T19:53:43.610Z,10.92
2023-05-19T19:56:10.219Z,10.83
2023-05-19T19:58:37.200Z,10.72
2023-05-19T20:01:04.294Z,10.52
2023-05-19T20:03:31.713Z,10.48
2023-05-19T20:05:58.739Z,10.43
2023-05-19T20:08:26.426Z,10.39
2023-05-19T20:10:53.680Z,10.40
2023-05-19T20:13:20.930Z,10.46
2023-05-19T20:15:47.734Z,10.49
2023-05-19T20:18:14.482Z,10.27
2023-05-19T20:20:42.000Z,10.20
2023-05-19T20:23:09.245Z,10.08
2023-05-19T20:25:53.638Z,10.04
2023-05-19T20:28:28.276Z,9.99
2023-05-19T20:30:54.866Z,10.05
2023-05-19T20:33:21.448Z,9.95
2023-05-19T20:35:48.017Z,9.91
2023-05-19T20:38:14.690Z,9.77
2023-05-19T20:40:41.549Z,9.65
2023-05-19T20:43:08.214Z,9.45
2023-05-19T20:45:35.015Z,9.61
2023-05-19T20:48:02.778Z,9.37
2023-05-19T20:50:29.545Z,9.41
2023-05-19T20:52:56.373Z,9.41
2023-05-19T20:55:22.913Z,9.38
2023-05-19T20:57:49.652Z,9.39
2023-05-19T21:00:16.503Z,9.31
2023-05-19T21:02:43.391Z,9.35
2023-05-19T21:05:10.197Z,9.35
2023-05-19T21:07:36.962Z,9.35
2023-05-19T21:10:03.757Z,9.34
2023-05-19T21:12:33.980Z,9.37
2023-05-19T21:15:01.587Z,9.64
2023-05-19T21:17:28.428Z,9.32
2023-05-19T21:19:58.049Z,9.64
2023-05-19T21:22:26.375Z,9.64
2023-05-19T21:24:53.830Z,9.66
2023-05-19T21:27:20.668Z,9.73
2023-05-19T21:29:47.389Z,9.58
2023-05-19T21:32:14.074Z,9.66
2023-05-19T21:34:40.678Z,9.58
2023-05-19T21:37:07.300Z,9.82
2023-05-19T21:39:34.818Z,9.56
2023-05-19T21:42:01.531Z,9.49
2023-05-19T21:44:28.187Z,9.39
2023-05-19T21:46:55.014Z,9.46
2023-05-19T21:49:21.712Z,9.26
2023-05-19T21:51:48.327Z,9.40
2023-05-19T21:54:14.958Z,9.39
2023-05-19T21:56:41.596Z,9.12
2023-05-19T21:59:09.095Z,9.12
2023-05-19T22:01:35.656Z,8.76
2023-05-19T22:04:02.419Z,8.37
2023-05-19T22:06:29.206Z,8.36
2023-05-19T22:08:55.860Z,8.43
2023-05-19T22:11:22.742Z,8.40
2023-05-19T22:13:50.113Z,8.33
2023-05-19T22:16:16.739Z,8.01
2023-05-19T22:18:43.386Z,8.06
2023-05-19T22:21:10.017Z,7.79
2023-05-19T22:23:36.645Z,8.01
2023-05-19T22:26:03.281Z,7.99
2023-05-19T22:28:29.872Z,7.42
2023-05-19T22:30:56.514Z,7.79
2023-05-19T22:33:23.088Z,7.81
2023-05-19T22:35:49.713Z,7.71
2023-05-19T22:38:16.385Z,7.74
2023-05-19T22:40:42.996Z,7.51
2023-05-19T22:43:09.648Z,7.62
2023-05-19T22:45:36.602Z,7.68
2023-05-19T22:48:03.769Z,7.58
2023-05-19T22:50:30.405Z,7.41
2023-05-19T22:52:57.440Z,7.49
2023-05-19T22:55:24.156Z,7.43
2023-05-19T22:57:51.151Z,7.15
2023-05-19T23:00:20.708Z,7.25
2023-05-19T23:02:47.371Z,7.26
2023-05-19T23:05:14.046Z,7.18
2023-05-19T23:07:40.815Z,6.86
2023-05-19T23:10:07.854Z,6.97
2023-05-19T23:12:34.504Z,6.64
2023-05-19T23:15:01.183Z,7.02
2023-05-19T23:17:27.936Z,6.96
2023-05-19T23:19:54.543Z,7.01
2023-05-19T23:22:21.094Z,7.02
2023-05-19T23:24:47.826Z,6.76
2023-05-19T23:27:14.439Z,7.01
2023-05-19T23:29:40.982Z,6.76
2023-05-19T23:32:07.971Z,6.87
2023-05-19T23:34:34.578Z,6.69
2023-05-19T23:37:01.149Z,6.57
2023-05-19T23:39:27.929Z,6.29
2023-05-19T23:41:54.540Z,6.43
2023-05-19T23:44:21.183Z,6.46
2023-05-19T23:46:47.835Z,6.44
2023-05-19T23:49:14.646Z,6.62
2023-05-19T23:51:41.351Z,6.75
2023-05-19T23:54:07.929Z,6.63
2023-05-19T23:56:34.559Z,6.45
2023-05-19T23:59:01.296Z,6.37
